createdAt,value
2024-01-29T00:00:06.183Z,101927.41
2024-01-29T00:02:07.953Z,101928.63
2024-01-29T00:04:09.793Z,101921.38
2024-01-29T00:06:14.543Z,101927.59
2024-01-29T00:08:16.795Z,101928.53
2024-01-29T00:10:18.884Z,101928.06
2024-01-29T00:12:20.632Z,101931.06
2024-01-29T00:14:22.461Z,101922.00
2024-01-29T00:16:24.859Z,101924.94
2024-01-29T00:18:26.723Z,101924.38
2024-01-29T00:20:28.395Z,101923.31
2024-01-29T00:22:30.903Z,101925.59
2024-01-29T00:24:32.632Z,101920.88
2024-01-29T00:26:34.404Z,101925.66
2024-01-29T00:28:36.085Z,101919.00
2024-01-29T00:30:38.077Z,101916.69
2024-01-29T00:32:41.931Z,101910.72
2024-01-29T00:34:44.212Z,101908.28
2024-01-29T00:36:45.961Z,101913.38
2024-01-29T00:38:49.079Z,101909.31
2024-01-29T00:40:51.069Z,101913.50
2024-01-29T00:42:52.839Z,101911.78
2024-01-29T00:44:54.577Z,101906.81
2024-01-29T00:46:56.287Z,101910.84
2024-01-29T00:48:58.256Z,101900.19
2024-01-29T00:51:02.559Z,101908.75
2024-01-29T00:53:04.712Z,101910.44
2024-01-29T00:55:07.146Z,101907.00
2024-01-29T00:57:08.953Z,101909.88
2024-01-29T00:59:11.041Z,101902.06
2024-01-29T01:01:13.795Z,101905.59
2024-01-29T01:03:15.643Z,101912.66
2024-01-29T01:05:17.524Z,101913.47
2024-01-29T01:07:19.313Z,101923.53
2024-01-29T01:09:21.001Z,101925.94
2024-01-29T01:11:22.765Z,101921.44
2024-01-29T01:13:24.467Z,101918.00
2024-01-29T01:15:26.317Z,101909.78
2024-01-29T01:17:28.066Z,101915.34
2024-01-29T01:19:29.922Z,101919.31
2024-01-29T01:21:31.673Z,101918.53
2024-01-29T01:23:33.485Z,101910.22
2024-01-29T01:25:35.243Z,101919.19
2024-01-29T01:27:37.016Z,101916.78
2024-01-29T01:29:38.861Z,101922.47
2024-01-29T01:31:40.704Z,101921.94
2024-01-29T01:33:42.582Z,101922.28
2024-01-29T01:35:44.476Z,101916.22
2024-01-29T01:37:46.196Z,101918.06
2024-01-29T01:39:48.262Z,101924.63
2024-01-29T01:41:51.623Z,101928.22
2024-01-29T01:43:53.333Z,101925.56
2024-01-29T01:46:07.589Z,101926.44
2024-01-29T01:48:09.505Z,101935.13
2024-01-29T01:50:12.039Z,101934.88
2024-01-29T01:52:13.860Z,101937.41
2024-01-29T01:54:16.694Z,101931.84
2024-01-29T01:56:19.076Z,101926.13
2024-01-29T01:58:21.342Z,101936.53
2024-01-29T02:00:23.076Z,101932.44
2024-01-29T02:02:24.931Z,101940.81
2024-01-29T02:04:26.669Z,101941.63
2024-01-29T02:06:29.494Z,101942.28
2024-01-29T02:08:31.370Z,101937.94
2024-01-29T02:10:33.102Z,101933.56
2024-01-29T02:12:34.907Z,101937.16
2024-01-29T02:14:36.770Z,101946.50
2024-01-29T02:16:38.508Z,101937.94
2024-01-29T02:18:46.319Z,101932.97
2024-01-29T02:20:48.247Z,101931.16
2024-01-29T02:22:49.888Z,101922.94
2024-01-29T02:24:51.698Z,101930.16
2024-01-29T02:26:53.760Z,101921.75
2024-01-29T02:28:55.625Z,101927.81
2024-01-29T02:30:57.583Z,101922.78
2024-01-29T02:33:00.046Z,101930.44
2024-01-29T02:35:01.966Z,101928.97
2024-01-29T02:37:04.105Z,101929.69
2024-01-29T02:39:05.990Z,101925.69
2024-01-29T02:41:07.706Z,101929.88
2024-01-29T02:43:09.520Z,101931.00
2024-01-29T02:45:11.193Z,101936.00
2024-01-29T02:47:13.026Z,101939.25
2024-01-29T02:49:15.004Z,101928.22
2024-01-29T02:51:16.850Z,101925.44
2024-01-29T02:53:18.526Z,101934.88
2024-01-29T02:55:20.118Z,101938.72
2024-01-29T02:57:25.658Z,101932.59
2024-01-29T02:59:27.458Z,101929.78
2024-01-29T03:01:29.299Z,101941.59
2024-01-29T03:03:31.096Z,101929.88
2024-01-29T03:05:32.782Z,101933.25
2024-01-29T03:07:34.497Z,101933.53
2024-01-29T03:09:36.540Z,101940.34
2024-01-29T03:11:38.207Z,101932.69
2024-01-29T03:13:40.043Z,101938.63
2024-01-29T03:15:41.772Z,101930.19
2024-01-29T03:17:43.727Z,101931.94
2024-01-29T03:19:45.485Z,101939.03
2024-01-29T03:21:47.577Z,101929.72
2024-01-29T03:23:49.297Z,101932.31
2024-01-29T03:25:51.101Z,101937.69
2024-01-29T03:27:54.627Z,101933.97
2024-01-29T03:29:57.026Z,101929.88
2024-01-29T03:32:00.149Z,101933.13
2024-01-29T03:34:02.001Z,101932.78
2024-01-29T03:36:08.189Z,101935.03
2024-01-29T03:38:10.000Z,101925.44
2024-01-29T03:40:12.480Z,101917.06
2024-01-29T03:42:14.191Z,101920.53
2024-01-29T03:44:17.090Z,101925.28
2024-01-29T03:46:18.923Z,101921.00
2024-01-29T03:48:21.273Z,101932.88
2024-01-29T03:50:23.095Z,101925.13
2024-01-29T03:52:24.826Z,101920.47
2024-01-29T03:54:26.684Z,101911.88
2024-01-29T03:56:28.352Z,101915.81
2024-01-29T03:58:30.029Z,101914.94
2024-01-29T04:00:31.886Z,101911.19
2024-01-29T04:02:33.628Z,101912.84
2024-01-29T04:04:35.548Z,101913.81
2024-01-29T04:06:41.558Z,101918.41
2024-01-29T04:08:43.760Z,101912.19
2024-01-29T04:10:45.494Z,101915.69
2024-01-29T04:12:48.290Z,101910.38
2024-01-29T04:14:50.055Z,101916.31
2024-01-29T04:16:51.965Z,101914.41
2024-01-29T04:18:53.869Z,101920.84
2024-01-29T04:20:55.652Z,101920.16
2024-01-29T04:22:57.314Z,101926.84
2024-01-29T04:25:07.840Z,101928.66
2024-01-29T04:27:09.802Z,101926.16
2024-01-29T04:29:11.563Z,101922.84
2024-01-29T04:31:14.758Z,101934.03
2024-01-29T04:33:16.452Z,101933.53
2024-01-29T04:35:18.292Z,101940.16
2024-01-29T04:37:20.089Z,101947.94
2024-01-29T04:39:21.958Z,101946.91
2024-01-29T04:41:23.728Z,101945.88
2024-01-29T04:43:25.433Z,101950.94
2024-01-29T04:45:27.123Z,101962.22
2024-01-29T04:47:29.300Z,101958.66
2024-01-29T04:49:31.057Z,101954.75
2024-01-29T04:51:32.936Z,101950.25
2024-01-29T04:53:35.408Z,101951.25
2024-01-29T04:55:37.094Z,101950.47
2024-01-29T04:57:38.900Z,101939.06
2024-01-29T04:59:40.793Z,101943.28
2024-01-29T05:01:42.728Z,101954.72
2024-01-29T05:03:46.282Z,101957.06
2024-01-29T05:05:53.802Z,101949.88
2024-01-29T05:07:55.593Z,101948.63
2024-01-29T05:09:57.409Z,101955.22
2024-01-29T05:11:59.361Z,101959.72
2024-01-29T05:14:01.073Z,101955.06
2024-01-29T05:16:06.289Z,101954.66
2024-01-29T05:18:09.111Z,101954.16
2024-01-29T05:20:11.116Z,101954.75
2024-01-29T05:22:13.805Z,101952.56
2024-01-29T05:24:15.620Z,101954.94
2024-01-29T05:26:17.542Z,101952.56
2024-01-29T05:28:19.775Z,101950.84
2024-01-29T05:30:21.709Z,101953.09
2024-01-29T05:32:23.401Z,101954.84
2024-01-29T05:34:25.180Z,101954.94
2024-01-29T05:36:27.026Z,101972.03
2024-01-29T05:38:29.040Z,101961.72
2024-01-29T05:40:31.211Z,101958.22
2024-01-29T05:42:32.972Z,101963.13
2024-01-29T05:44:34.805Z,101959.69
2024-01-29T05:46:36.535Z,101966.72
2024-01-29T05:48:39.834Z,101959.88
2024-01-29T05:50:42.175Z,101963.91
2024-01-29T05:52:44.430Z,101969.81
2024-01-29T05:54:46.175Z,101966.59
2024-01-29T05:56:50.979Z,101970.13
2024-01-29T05:58:53.329Z,101973.69
2024-01-29T06:00:55.119Z,101971.97
2024-01-29T06:02:57.483Z,101969.56
2024-01-29T06:04:59.230Z,101984.16
2024-01-29T06:07:04.824Z,101979.09
2024-01-29T06:09:20.238Z,101994.75
2024-01-29T06:11:27.926Z,101988.81
2024-01-29T06:13:33.169Z,101995.63
2024-01-29T06:15:34.939Z,101993.34
2024-01-29T06:17:36.876Z,101987.38
2024-01-29T06:19:53.546Z,101997.81
2024-01-29T06:22:00.287Z,101994.91
2024-01-29T06:24:04.340Z,101992.53
2024-01-29T06:26:06.154Z,101993.06
2024-01-29T06:28:08.755Z,101996.56
2024-01-29T06:30:10.963Z,102002.44
2024-01-29T06:32:12.606Z,101998.22
2024-01-29T06:34:14.372Z,101994.53
2024-01-29T06:36:17.109Z,102001.91
2024-01-29T06:38:19.441Z,101995.16
2024-01-29T06:40:28.150Z,101993.25
2024-01-29T06:42:29.920Z,101996.81
2024-01-29T06:44:31.675Z,101998.31
2024-01-29T06:46:33.397Z,101999.19
2024-01-29T06:48:39.954Z,102004.28
2024-01-29T06:50:41.979Z,102005.06
2024-01-29T06:52:43.801Z,102010.84
2024-01-29T06:54:45.725Z,102006.91
2024-01-29T06:56:47.837Z,102010.13
2024-01-29T06:58:50.867Z,102011.69
2024-01-29T07:00:53.096Z,102023.84
2024-01-29T07:02:55.015Z,102028.47
2024-01-29T07:04:56.676Z,102026.38
2024-01-29T07:06:58.458Z,102026.94
2024-01-29T07:09:00.222Z,102035.81
2024-01-29T07:11:01.878Z,102028.00
2024-01-29T07:13:03.818Z,102029.41
2024-01-29T07:15:05.982Z,102032.72
2024-01-29T07:17:07.968Z,102028.78
2024-01-29T07:19:10.453Z,102034.03
2024-01-29T07:21:12.589Z,102034.97
2024-01-29T07:23:14.269Z,102030.75
2024-01-29T07:25:16.378Z,102035.75
2024-01-29T07:27:18.735Z,102030.75
2024-01-29T07:29:20.456Z,102036.47
2024-01-29T07:31:25.416Z,102037.84
2024-01-29T07:33:27.298Z,102035.22
2024-01-29T07:35:29.990Z,102030.19
2024-01-29T07:37:31.808Z,102035.09
2024-01-29T07:39:33.689Z,102031.78
2024-01-29T07:41:36.876Z,102034.16
2024-01-29T07:43:39.687Z,102038.78
2024-01-29T07:45:41.557Z,102038.75
2024-01-29T07:47:43.345Z,102031.81
2024-01-29T07:49:45.666Z,102028.78
2024-01-29T07:51:47.586Z,102027.09
2024-01-29T07:53:49.367Z,102036.50
2024-01-29T07:55:51.069Z,102032.09
2024-01-29T07:57:54.167Z,102033.34
2024-01-29T07:59:56.009Z,102037.09
2024-01-29T08:01:58.201Z,102036.84
2024-01-29T08:04:03.115Z,102036.72
2024-01-29T08:06:05.586Z,102035.16
2024-01-29T08:08:07.865Z,102037.03
2024-01-29T08:10:09.825Z,102031.94
2024-01-29T08:12:11.829Z,102031.56
2024-01-29T08:14:13.703Z,102037.97
2024-01-29T08:16:15.642Z,102036.47
2024-01-29T08:18:18.463Z,102042.13
2024-01-29T08:20:20.779Z,102040.59
2024-01-29T08:22:22.590Z,102041.31
2024-01-29T08:24:24.546Z,102039.19
2024-01-29T08:26:26.818Z,102044.09
2024-01-29T08:28:28.524Z,102046.63
2024-01-29T08:30:30.226Z,102042.19
2024-01-29T08:32:31.920Z,102039.84
2024-01-29T08:34:33.775Z,102046.53
2024-01-29T08:36:35.678Z,102045.66
2024-01-29T08:38:37.974Z,102049.66
2024-01-29T08:40:39.757Z,102048.63
2024-01-29T08:42:41.503Z,102054.72
2024-01-29T08:44:43.613Z,102053.13
2024-01-29T08:46:45.435Z,102051.72
2024-01-29T08:48:47.175Z,102049.72
2024-01-29T08:50:48.881Z,102047.47
2024-01-29T08:52:50.708Z,102046.69
2024-01-29T08:54:52.796Z,102043.88
2024-01-29T08:56:54.775Z,102048.34
2024-01-29T08:59:08.869Z,102047.66
2024-01-29T09:01:10.616Z,102049.88
2024-01-29T09:03:12.426Z,102045.94
2024-01-29T09:05:14.403Z,102046.81
2024-01-29T09:07:19.971Z,102038.22
2024-01-29T09:09:22.221Z,102043.06
2024-01-29T09:11:23.981Z,102044.81
2024-01-29T09:13:26.476Z,102054.78
2024-01-29T09:15:28.583Z,102056.53
2024-01-29T09:17:30.464Z,102066.09
2024-01-29T09:19:38.721Z,102060.66
2024-01-29T09:21:42.720Z,102063.22
2024-01-29T09:23:44.509Z,102057.34
2024-01-29T09:25:49.362Z,102069.88
2024-01-29T09:27:51.487Z,102073.56
2024-01-29T09:29:53.311Z,102072.25
2024-01-29T09:31:55.371Z,102074.81
2024-01-29T09:33:57.333Z,102078.28
2024-01-29T09:36:11.648Z,102081.72
2024-01-29T09:38:15.530Z,102080.53
2024-01-29T09:40:17.508Z,102090.69
2024-01-29T09:42:19.615Z,102085.69
2024-01-29T09:44:22.729Z,102082.66
2024-01-29T09:46:39.250Z,102083.22
2024-01-29T09:48:46.502Z,102080.78
2024-01-29T09:50:56.274Z,102073.47
2024-01-29T09:52:59.492Z,102073.44
2024-01-29T09:55:03.734Z,102070.13
2024-01-29T09:57:06.251Z,102074.47
2024-01-29T09:59:15.312Z,102067.91
2024-01-29T10:01:21.275Z,102078.22
2024-01-29T10:03:29.120Z,102073.91
2024-01-29T10:05:32.637Z,102075.34
2024-01-29T10:07:35.927Z,102066.97
2024-01-29T10:09:38.332Z,102070.38
2024-01-29T10:11:42.781Z,102067.25
2024-01-29T10:13:48.458Z,102065.34
2024-01-29T10:15:57.042Z,102065.38
2024-01-29T10:18:00.804Z,102064.88
2024-01-29T10:20:02.870Z,102060.19
2024-01-29T10:22:15.187Z,102065.78
2024-01-29T10:24:18.523Z,102064.03
2024-01-29T10:26:22.968Z,102062.22
2024-01-29T10:28:27.753Z,102065.22
2024-01-29T10:30:31.951Z,102072.94
2024-01-29T10:32:34.000Z,102072.22
2024-01-29T10:34:35.778Z,102062.28
2024-01-29T10:36:40.714Z,102060.09
2024-01-29T10:38:46.982Z,102066.19
2024-01-29T10:40:49.358Z,102054.63
2024-01-29T10:42:52.365Z,102059.78
2024-01-29T10:44:54.820Z,102065.19
2024-01-29T10:47:00.727Z,102070.00
2024-01-29T10:49:03.198Z,102063.66
2024-01-29T10:51:06.270Z,102063.03
2024-01-29T10:53:09.216Z,102063.44
2024-01-29T10:55:12.518Z,102061.25
2024-01-29T10:57:15.355Z,102064.06
2024-01-29T10:59:19.760Z,102057.94
2024-01-29T11:01:22.013Z,102054.75
2024-01-29T11:03:24.684Z,102049.81
2024-01-29T11:05:27.229Z,102047.31
2024-01-29T11:07:30.448Z,102043.34
2024-01-29T11:09:33.931Z,102045.94
2024-01-29T11:11:36.989Z,102051.19
2024-01-29T11:13:39.362Z,102060.66
2024-01-29T11:15:43.079Z,102047.06
2024-01-29T11:17:46.013Z,102054.03
2024-01-29T11:19:52.064Z,102055.00
2024-01-29T11:21:53.827Z,102048.34
2024-01-29T11:23:58.898Z,102043.75
2024-01-29T11:26:05.398Z,102045.47
2024-01-29T11:28:09.481Z,102046.19
2024-01-29T11:30:17.621Z,102048.56
2024-01-29T11:32:19.553Z,102052.59
2024-01-29T11:34:29.219Z,102051.75
2024-01-29T11:36:31.155Z,102051.81
2024-01-29T11:38:45.765Z,102051.16
2024-01-29T11:40:47.525Z,102046.72
2024-01-29T11:42:49.641Z,102043.63
2024-01-29T11:44:52.117Z,102047.03
2024-01-29T11:46:56.646Z,102041.19
2024-01-29T11:49:02.602Z,102040.19
2024-01-29T11:51:04.925Z,102034.31
2024-01-29T11:53:11.204Z,102030.94
2024-01-29T11:55:14.380Z,102029.44
2024-01-29T11:57:16.717Z,102029.41
2024-01-29T11:59:18.465Z,102017.72
2024-01-29T12:01:20.385Z,102030.81
2024-01-29T12:03:23.974Z,102029.78
2024-01-29T12:05:25.876Z,102045.84
2024-01-29T12:07:27.913Z,102039.34
2024-01-29T12:09:32.191Z,102031.84
2024-01-29T12:11:34.059Z,102038.56
2024-01-29T12:13:35.729Z,102034.16
2024-01-29T12:15:37.474Z,102030.38
2024-01-29T12:17:47.356Z,102026.31
2024-01-29T12:19:53.018Z,102032.16
2024-01-29T12:21:54.887Z,102032.31
2024-01-29T12:23:56.890Z,102043.09
2024-01-29T12:25:59.899Z,102034.38
2024-01-29T12:28:06.153Z,102030.16
2024-01-29T12:30:15.232Z,102025.78
2024-01-29T12:32:21.491Z,102029.88
2024-01-29T12:34:24.537Z,102030.75
2024-01-29T12:36:26.553Z,102025.78
2024-01-29T12:38:28.333Z,102029.75
2024-01-29T12:40:30.352Z,102026.44
2024-01-29T12:43:04.706Z,102022.06
2024-01-29T12:45:10.436Z,102025.41
2024-01-29T12:47:18.842Z,102014.31
2024-01-29T12:49:20.673Z,102022.72
2024-01-29T12:51:28.895Z,102022.56
2024-01-29T12:53:30.561Z,102015.56
2024-01-29T12:55:32.364Z,102011.31
2024-01-29T12:57:34.215Z,102018.75
2024-01-29T12:59:36.245Z,102022.09
2024-01-29T13:01:38.404Z,102016.13
2024-01-29T13:03:41.436Z,102016.47
2024-01-29T13:05:43.658Z,102010.66
2024-01-29T13:07:45.328Z,102000.34
2024-01-29T13:09:47.309Z,102002.81
2024-01-29T13:11:49.600Z,101998.94
2024-01-29T13:13:51.382Z,102008.91
2024-01-29T13:15:57.458Z,101991.63
2024-01-29T13:18:00.508Z,101985.75
2024-01-29T13:20:02.550Z,101990.00
2024-01-29T13:22:05.350Z,101998.38
2024-01-29T13:24:07.153Z,101977.84
2024-01-29T13:26:09.412Z,101982.81
2024-01-29T13:28:11.566Z,101987.50
2024-01-29T13:30:13.942Z,101979.19
2024-01-29T13:32:15.694Z,101983.28
2024-01-29T13:34:21.310Z,101975.69
2024-01-29T13:36:23.580Z,101985.81
2024-01-29T13:38:25.320Z,101983.53
2024-01-29T13:40:27.216Z,101987.84
2024-01-29T13:42:29.256Z,102000.38
2024-01-29T13:44:30.897Z,101981.41
2024-01-29T13:46:32.752Z,101992.13
2024-01-29T13:48:34.668Z,101986.41
2024-01-29T13:50:37.216Z,101987.28
2024-01-29T13:52:39.238Z,101982.50
2024-01-29T13:54:41.911Z,101984.66
2024-01-29T13:56:43.758Z,101987.97
2024-01-29T13:58:45.569Z,101982.91
2024-01-29T14:00:47.364Z,101983.03
2024-01-29T14:02:49.148Z,101979.91
2024-01-29T14:04:50.853Z,101976.31
2024-01-29T14:06:58.696Z,101976.06
2024-01-29T14:09:04.872Z,101970.59
2024-01-29T14:11:16.787Z,101976.84
2024-01-29T14:13:18.929Z,101973.72
2024-01-29T14:15:21.066Z,101967.47
2024-01-29T14:17:22.840Z,101964.78
2024-01-29T14:19:25.067Z,101968.47
2024-01-29T14:21:27.711Z,101961.44
2024-01-29T14:23:30.292Z,101960.59
2024-01-29T14:25:32.030Z,101960.81
2024-01-29T14:27:33.786Z,101960.81
2024-01-29T14:29:35.687Z,101943.94
2024-01-29T14:31:37.375Z,101949.66
2024-01-29T14:33:39.262Z,101944.28
2024-01-29T14:35:48.331Z,101949.56
2024-01-29T14:37:50.066Z,101950.53
2024-01-29T14:39:51.770Z,101940.97
2024-01-29T14:41:53.770Z,101951.09
2024-01-29T14:43:55.499Z,101947.91
2024-01-29T14:46:03.749Z,101948.72
2024-01-29T14:48:07.338Z,101942.19
2024-01-29T14:50:09.109Z,101935.59
2024-01-29T14:52:10.810Z,101933.78
2024-01-29T14:54:14.719Z,101939.78
2024-01-29T14:56:16.748Z,101938.41
2024-01-29T14:58:19.532Z,101944.00
2024-01-29T15:00:22.314Z,101946.56
2024-01-29T15:02:24.029Z,101940.50
2024-01-29T15:04:26.003Z,101935.03
2024-01-29T15:06:28.712Z,101940.19
2024-01-29T15:08:30.821Z,101930.47
2024-01-29T15:10:32.592Z,101927.94
2024-01-29T15:12:34.680Z,101925.19
2024-01-29T15:14:36.454Z,101919.16
2024-01-29T15:16:38.508Z,101915.56
2024-01-29T15:18:43.002Z,101912.16
2024-01-29T15:20:44.956Z,101919.97
2024-01-29T15:22:46.866Z,101921.72
2024-01-29T15:24:48.671Z,101919.38
2024-01-29T15:26:50.632Z,101920.28
2024-01-29T15:28:52.567Z,101922.56
2024-01-29T15:30:54.334Z,101921.94
2024-01-29T15:32:56.128Z,101918.28
2024-01-29T15:34:58.370Z,101910.63
2024-01-29T15:37:00.194Z,101914.56
2024-01-29T15:39:02.942Z,101919.03
2024-01-29T15:41:05.185Z,101919.03
2024-01-29T15:43:07.106Z,101926.06
2024-01-29T15:45:10.803Z,101915.59
2024-01-29T15:47:13.663Z,101914.00
2024-01-29T15:49:16.016Z,101915.91
2024-01-29T15:51:21.517Z,101923.06
2024-01-29T15:53:25.287Z,101921.59
2024-01-29T15:55:27.910Z,101905.13
2024-01-29T15:57:29.642Z,101909.13
2024-01-29T15:59:31.376Z,101906.69
2024-01-29T16:01:33.216Z,101897.03
2024-01-29T16:03:37.873Z,101903.19
2024-01-29T16:05:39.708Z,101913.38
2024-01-29T16:07:43.416Z,101915.78
2024-01-29T16:09:45.173Z,101916.72
2024-01-29T16:11:46.930Z,101920.97
2024-01-29T16:13:48.631Z,101934.69
2024-01-29T16:16:07.243Z,101942.38
2024-01-29T16:18:10.193Z,101954.59
2024-01-29T16:20:14.043Z,101953.63
2024-01-29T16:22:16.026Z,101955.91
2024-01-29T16:24:17.865Z,101952.22
2024-01-29T16:26:20.895Z,101948.00
2024-01-29T16:28:22.664Z,101945.25
2024-01-29T16:30:24.420Z,101946.97
2024-01-29T16:32:26.223Z,101941.66
2024-01-29T16:34:30.263Z,101945.63
2024-01-29T16:36:32.326Z,101945.78
2024-01-29T16:38:34.017Z,101944.63
2024-01-29T16:40:36.030Z,101954.47
2024-01-29T16:42:38.475Z,101946.56
2024-01-29T16:44:43.350Z,101946.47
2024-01-29T16:46:45.188Z,101948.22
2024-01-29T16:48:47.183Z,101953.34
2024-01-29T16:50:48.967Z,101953.34
2024-01-29T16:52:52.782Z,101949.91
2024-01-29T16:54:54.706Z,101948.88
2024-01-29T16:57:08.593Z,101955.22
2024-01-29T16:59:11.020Z,101948.41
2024-01-29T17:01:13.063Z,101941.19
2024-01-29T17:03:14.958Z,101948.91
2024-01-29T17:05:17.430Z,101963.66
2024-01-29T17:07:19.253Z,101959.41
2024-01-29T17:09:21.866Z,101969.41
2024-01-29T17:11:23.711Z,101968.63
2024-01-29T17:13:25.492Z,101967.47
2024-01-29T17:15:27.324Z,101956.59
2024-01-29T17:17:29.153Z,101952.19
2024-01-29T17:19:31.053Z,101959.03
2024-01-29T17:21:33.078Z,101950.06
2024-01-29T17:23:35.434Z,101955.25
2024-01-29T17:25:37.473Z,101956.00
2024-01-29T17:27:39.261Z,101957.84
2024-01-29T17:29:41.285Z,101952.56
2024-01-29T17:31:42.987Z,101959.97
2024-01-29T17:33:44.728Z,101954.69
2024-01-29T17:35:58.667Z,101952.84
2024-01-29T17:38:01.327Z,101952.94
2024-01-29T17:40:03.448Z,101942.78
2024-01-29T17:42:05.463Z,101943.56
2024-01-29T17:44:09.762Z,101948.72
2024-01-29T17:46:11.507Z,101943.47
2024-01-29T17:48:13.730Z,101948.72
2024-01-29T17:50:16.633Z,101963.41
2024-01-29T17:52:18.556Z,101958.16
2024-01-29T17:54:21.165Z,101954.41
2024-01-29T17:56:23.231Z,101961.41
2024-01-29T17:58:25.563Z,101954.09
2024-01-29T18:00:29.704Z,101963.06
2024-01-29T18:02:31.632Z,101958.22
2024-01-29T18:04:33.754Z,101962.50
2024-01-29T18:06:46.333Z,101973.09
2024-01-29T18:08:48.058Z,101976.69
2024-01-29T18:10:50.296Z,101969.69
2024-01-29T18:12:51.930Z,101969.03
2024-01-29T18:14:54.256Z,101972.34
2024-01-29T18:17:01.703Z,101976.28
2024-01-29T18:19:03.876Z,101976.53
2024-01-29T18:21:05.738Z,101966.34
2024-01-29T18:23:09.894Z,101964.38
2024-01-29T18:25:11.784Z,101972.25
2024-01-29T18:27:14.950Z,101973.41
2024-01-29T18:29:16.709Z,101967.88
2024-01-29T18:31:22.028Z,101977.56
2024-01-29T18:33:23.969Z,101971.66
2024-01-29T18:35:27.684Z,101981.84
2024-01-29T18:37:29.443Z,101980.34
2024-01-29T18:39:31.218Z,101975.16
2024-01-29T18:41:33.091Z,101969.78
2024-01-29T18:43:34.760Z,101971.75
2024-01-29T18:45:36.556Z,101973.31
2024-01-29T18:47:38.344Z,101966.56
2024-01-29T18:49:40.191Z,101966.34
2024-01-29T18:52:05.082Z,101960.75
2024-01-29T18:54:07.486Z,101959.75
2024-01-29T18:56:09.220Z,101957.28
2024-01-29T18:58:10.865Z,101965.75
2024-01-29T19:00:13.257Z,101963.16
2024-01-29T19:02:16.049Z,101965.13
2024-01-29T19:04:17.977Z,101970.41
2024-01-29T19:06:20.234Z,101962.81
2024-01-29T19:08:21.972Z,101969.53
2024-01-29T19:10:23.668Z,101975.50
2024-01-29T19:12:25.439Z,101977.22
2024-01-29T19:14:27.196Z,101969.94
2024-01-29T19:16:28.938Z,101966.88
2024-01-29T19:18:30.931Z,101958.94
2024-01-29T19:20:32.688Z,101961.16
2024-01-29T19:22:35.232Z,101955.38
2024-01-29T19:24:36.976Z,101966.00
2024-01-29T19:26:38.706Z,101956.53
2024-01-29T19:28:42.545Z,101962.38
2024-01-29T19:30:46.794Z,101957.44
2024-01-29T19:32:48.649Z,101957.97
2024-01-29T19:34:50.633Z,101963.22
2024-01-29T19:36:53.354Z,101954.59
2024-01-29T19:38:55.501Z,101954.81
2024-01-29T19:40:57.502Z,101958.69
2024-01-29T19:43:00.039Z,101956.16
2024-01-29T19:45:01.778Z,101949.44
2024-01-29T19:47:03.550Z,101950.31
2024-01-29T19:49:05.375Z,101961.31
2024-01-29T19:51:07.234Z,101954.16
2024-01-29T19:53:09.149Z,101950.63
2024-01-29T19:55:10.877Z,101953.16
2024-01-29T19:57:12.685Z,101947.91
2024-01-29T19:59:14.540Z,101951.50
2024-01-29T20:01:16.435Z,101948.25
2024-01-29T20:03:18.127Z,101945.28
2024-01-29T20:05:19.946Z,101944.50
2024-01-29T20:07:22.957Z,101946.25
2024-01-29T20:09:25.218Z,101945.94
2024-01-29T20:11:27.489Z,101945.78
2024-01-29T20:13:29.422Z,101946.31
2024-01-29T20:15:31.157Z,101946.19
2024-01-29T20:17:32.880Z,101941.06
2024-01-29T20:19:34.677Z,101938.31
2024-01-29T20:21:41.036Z,101935.00
2024-01-29T20:23:45.665Z,101931.75
2024-01-29T20:25:50.442Z,101928.97
2024-01-29T20:27:52.339Z,101931.22
2024-01-29T20:29:54.158Z,101927.38
2024-01-29T20:31:56.059Z,101922.97
2024-01-29T20:33:59.381Z,101920.34
2024-01-29T20:36:03.982Z,101928.75
2024-01-29T20:38:05.882Z,101919.50
2024-01-29T20:40:08.680Z,101911.91
2024-01-29T20:42:13.355Z,101905.13
2024-01-29T20:44:16.386Z,101896.38
2024-01-29T20:46:18.907Z,101910.88
2024-01-29T20:48:20.713Z,101911.63
2024-01-29T20:50:24.039Z,101912.69
2024-01-29T20:52:28.687Z,101915.25
2024-01-29T20:54:30.755Z,101927.97
2024-01-29T20:56:33.923Z,101923.19
2024-01-29T20:58:48.115Z,101917.97
2024-01-29T21:00:51.646Z,101915.31
2024-01-29T21:02:53.545Z,101908.75
2024-01-29T21:04:55.694Z,101903.50
2024-01-29T21:07:02.366Z,101908.81
2024-01-29T21:09:04.872Z,101898.31
2024-01-29T21:11:06.958Z,101899.28
2024-01-29T21:13:10.100Z,101902.00
2024-01-29T21:15:11.904Z,101897.78
2024-01-29T21:17:14.041Z,101895.78
2024-01-29T21:19:15.984Z,101891.59
2024-01-29T21:21:18.260Z,101893.69
2024-01-29T21:23:20.397Z,101888.28
2024-01-29T21:25:23.199Z,101888.03
2024-01-29T21:27:25.140Z,101889.84
2024-01-29T21:29:28.372Z,101880.44
2024-01-29T21:31:30.907Z,101880.34
2024-01-29T21:33:34.514Z,101883.84
2024-01-29T21:35:37.407Z,101889.84
2024-01-29T21:37:39.094Z,101884.88
2024-01-29T21:39:40.942Z,101884.88
2024-01-29T21:41:43.784Z,101889.91
2024-01-29T21:43:45.499Z,101883.13
2024-01-29T21:45:50.589Z,101884.22
2024-01-29T21:47:52.424Z,101873.00
2024-01-29T21:49:54.185Z,101885.78
2024-01-29T21:51:55.898Z,101876.25
2024-01-29T21:53:57.591Z,101878.34
2024-01-29T21:58:01.262Z,101876.19
2024-01-29T22:00:05.144Z,101875.56
2024-01-29T22:02:07.079Z,101869.59
2024-01-29T22:04:09.044Z,101885.91
2024-01-29T22:06:11.815Z,101886.63
2024-01-29T22:08:16.587Z,101886.72
2024-01-29T22:10:19.209Z,101880.16
2024-01-29T22:12:21.001Z,101891.25
2024-01-29T22:14:22.713Z,101879.16
2024-01-29T22:16:26.132Z,101878.03
2024-01-29T22:18:28.186Z,101875.88
2024-01-29T22:20:30.102Z,101885.88
2024-01-29T22:22:31.891Z,101890.22
2024-01-29T22:24:33.752Z,101891.66
2024-01-29T22:26:35.484Z,101883.88
2024-01-29T22:28:41.452Z,101883.75
2024-01-29T22:30:43.181Z,101879.78
2024-01-29T22:32:46.936Z,101880.25
2024-01-29T22:34:48.877Z,101871.44
2024-01-29T22:36:50.759Z,101873.88
2024-01-29T22:38:52.408Z,101860.44
2024-01-29T22:40:54.155Z,101865.78
2024-01-29T22:42:55.875Z,101864.22
2024-01-29T22:44:57.593Z,101855.63
2024-01-29T22:46:59.385Z,101855.44
2024-01-29T22:49:01.167Z,101857.09
2024-01-29T22:51:02.929Z,101857.84
2024-01-29T22:53:04.825Z,101849.41
2024-01-29T22:55:06.977Z,101861.59
2024-01-29T22:57:08.838Z,101859.34
2024-01-29T22:59:10.970Z,101846.56
2024-01-29T23:01:12.788Z,101837.91
2024-01-29T23:03:14.517Z,101844.16
2024-01-29T23:05:16.218Z,101843.00
2024-01-29T23:07:18.209Z,101846.56
2024-01-29T23:09:19.923Z,101869.28
2024-01-29T23:11:21.675Z,101844.94
2024-01-29T23:13:23.626Z,101841.50
2024-01-29T23:15:25.306Z,101851.66
2024-01-29T23:17:30.596Z,101855.44
2024-01-29T23:19:32.255Z,101853.66
2024-01-29T23:21:35.872Z,101858.06
2024-01-29T23:23:37.704Z,101852.44